sensor_id;sensor_type;location;lat;lon;timestamp;P1;durP1;ratioP1;P2;durP2;ratioP2
16504;SDS011;8365;51.030;4.696;2024-03-02T00:02:10;1.47;;;1.37;;
16504;SDS011;8365;51.030;4.696;2024-03-02T00:04:43;1.50;;;1.23;;
16504;SDS011;8365;51.030;4.696;2024-03-02T00:07:14;1.00;;;1.00;;
16504;SDS011;8365;51.030;4.696;2024-03-02T00:09:45;1.90;;;1.03;;
16504;SDS011;8365;51.030;4.696;2024-03-02T00:12:15;1.60;;;1.10;;
16504;SDS011;8365;51.030;4.696;2024-03-02T00:14:46;1.20;;;1.10;;
16504;SDS011;8365;51.030;4.696;2024-03-02T00:17:24;1.30;;;1.20;;
16504;SDS011;8365;51.030;4.696;2024-03-02T00:19:58;0.93;;;0.93;;
16504;SDS011;8365;51.030;4.696;2024-03-02T00:22:28;0.93;;;0.90;;
16504;SDS011;8365;51.030;4.696;2024-03-02T00:24:59;1.57;;;1.00;;
16504;SDS011;8365;51.030;4.696;2024-03-02T00:27:29;2.53;;;1.00;;
16504;SDS011;8365;51.030;4.696;2024-03-02T00:30:00;1.27;;;1.10;;
16504;SDS011;8365;51.030;4.696;2024-03-02T00:32:31;0.90;;;0.90;;
16504;SDS011;8365;51.030;4.696;2024-03-02T00:35:04;1.20;;;1.10;;
16504;SDS011;8365;51.030;4.696;2024-03-02T00:37:35;1.17;;;1.10;;
16504;SDS011;8365;51.030;4.696;2024-03-02T00:40:05;1.10;;;1.00;;
16504;SDS011;8365;51.030;4.696;2024-03-02T00:42:38;1.07;;;1.00;;
16504;SDS011;8365;51.030;4.696;2024-03-02T00:45:09;1.17;;;0.90;;
16504;SDS011;8365;51.030;4.696;2024-03-02T00:47:39;1.20;;;1.10;;
16504;SDS011;8365;51.030;4.696;2024-03-02T00:50:10;1.47;;;1.00;;
16504;SDS011;8365;51.030;4.696;2024-03-02T00:52:40;1.73;;;1.10;;
16504;SDS011;8365;51.030;4.696;2024-03-02T00:55:11;1.00;;;1.00;;
16504;SDS011;8365;51.030;4.696;2024-03-02T00:57:42;3.07;;;1.20;;
16504;SDS011;8365;51.030;4.696;2024-03-02T01:00:15;1.00;;;0.90;;
16504;SDS011;8365;51.030;4.696;2024-03-02T01:02:49;1.63;;;1.03;;
16504;SDS011;8365;51.030;4.696;2024-03-02T01:05:20;1.60;;;1.00;;
16504;SDS011;8365;51.030;4.696;2024-03-02T01:07:51;1.00;;;0.87;;
16504;SDS011;8365;51.030;4.696;2024-03-02T01:10:21;2.07;;;0.90;;
16504;SDS011;8365;51.030;4.696;2024-03-02T01:12:52;0.83;;;0.83;;
16504;SDS011;8365;51.030;4.696;2024-03-02T01:15:22;0.57;;;0.57;;
16504;SDS011;8365;51.030;4.696;2024-03-02T01:17:53;0.67;;;0.63;;
16504;SDS011;8365;51.030;4.696;2024-03-02T01:20:23;1.60;;;1.00;;
16504;SDS011;8365;51.030;4.696;2024-03-02T01:22:54;0.90;;;0.53;;
16504;SDS011;8365;51.030;4.696;2024-03-02T01:25:25;0.93;;;0.90;;
16504;SDS011;8365;51.030;4.696;2024-03-02T01:27:56;1.23;;;0.90;;
16504;SDS011;8365;51.030;4.696;2024-03-02T01:30:26;0.80;;;0.80;;
16504;SDS011;8365;51.030;4.696;2024-03-02T01:32:57;0.77;;;0.77;;
16504;SDS011;8365;51.030;4.696;2024-03-02T01:35:29;1.67;;;1.00;;
16504;SDS011;8365;51.030;4.696;2024-03-02T01:38:02;1.60;;;1.20;;
16504;SDS011;8365;51.030;4.696;2024-03-02T01:40:36;1.13;;;1.03;;
16504;SDS011;8365;51.030;4.696;2024-03-02T01:43:07;2.13;;;1.30;;
16504;SDS011;8365;51.030;4.696;2024-03-02T01:45:38;1.80;;;1.10;;
16504;SDS011;8365;51.030;4.696;2024-03-02T01:48:08;2.00;;;1.20;;
16504;SDS011;8365;51.030;4.696;2024-03-02T01:50:39;1.40;;;1.30;;
16504;SDS011;8365;51.030;4.696;2024-03-02T01:53:12;1.53;;;1.07;;
16504;SDS011;8365;51.030;4.696;2024-03-02T01:55:42;1.70;;;1.10;;
16504;SDS011;8365;51.030;4.696;2024-03-02T01:58:13;1.33;;;1.10;;
16504;SDS011;8365;51.030;4.696;2024-03-02T02:00:43;1.00;;;1.00;;
16504;SDS011;8365;51.030;4.696;2024-03-02T02:03:15;1.13;;;1.00;;
16504;SDS011;8365;51.030;4.696;2024-03-02T02:05:45;1.10;;;1.00;;
16504;SDS011;8365;51.030;4.696;2024-03-02T02:08:17;0.80;;;0.80;;
16504;SDS011;8365;51.030;4.696;2024-03-02T02:10:48;1.47;;;1.20;;
16504;SDS011;8365;51.030;4.696;2024-03-02T02:13:19;0.80;;;0.80;;
16504;SDS011;8365;51.030;4.696;2024-03-02T02:15:49;1.33;;;0.83;;
16504;SDS011;8365;51.030;4.696;2024-03-02T02:18:20;1.27;;;0.80;;
16504;SDS011;8365;51.030;4.696;2024-03-02T02:20:51;0.83;;;0.83;;
16504;SDS011;8365;51.030;4.696;2024-03-02T02:23:21;0.77;;;0.60;;
16504;SDS011;8365;51.030;4.696;2024-03-02T02:25:52;1.00;;;0.90;;
16504;SDS011;8365;51.030;4.696;2024-03-02T02:28:22;0.80;;;0.80;;
16504;SDS011;8365;51.030;4.696;2024-03-02T02:30:54;1.47;;;1.00;;
16504;SDS011;8365;51.030;4.696;2024-03-02T02:33:26;0.63;;;0.63;;
16504;SDS011;8365;51.030;4.696;2024-03-02T02:35:56;0.80;;;0.80;;
16504;SDS011;8365;51.030;4.696;2024-03-02T02:38:27;1.20;;;0.83;;
16504;SDS011;8365;51.030;4.696;2024-03-02T02:40:57;3.13;;;0.90;;
16504;SDS011;8365;51.030;4.696;2024-03-02T02:43:28;1.43;;;0.93;;
16504;SDS011;8365;51.030;4.696;2024-03-02T02:45:58;0.97;;;0.90;;
16504;SDS011;8365;51.030;4.696;2024-03-02T02:48:29;2.57;;;0.93;;
16504;SDS011;8365;51.030;4.696;2024-03-02T02:50:59;2.60;;;1.17;;
16504;SDS011;8365;51.030;4.696;2024-03-02T02:53:30;1.80;;;0.80;;
16504;SDS011;8365;51.030;4.696;2024-03-02T02:56:00;1.77;;;0.90;;
16504;SDS011;8365;51.030;4.696;2024-03-02T02:58:31;1.57;;;0.90;;
16504;SDS011;8365;51.030;4.696;2024-03-02T03:01:02;1.23;;;1.07;;
16504;SDS011;8365;51.030;4.696;2024-03-02T03:03:33;1.07;;;0.83;;
16504;SDS011;8365;51.030;4.696;2024-03-02T03:06:04;0.90;;;0.83;;
16504;SDS011;8365;51.030;4.696;2024-03-02T03:08:34;1.53;;;1.10;;
16504;SDS011;8365;51.030;4.696;2024-03-02T03:11:05;2.07;;;0.90;;
16504;SDS011;8365;51.030;4.696;2024-03-02T03:13:35;0.80;;;0.80;;
16504;SDS011;8365;51.030;4.696;2024-03-02T03:16:08;1.63;;;0.80;;
16504;SDS011;8365;51.030;4.696;2024-03-02T03:18:39;1.83;;;0.80;;
16504;SDS011;8365;51.030;4.696;2024-03-02T03:21:09;1.93;;;1.00;;
16504;SDS011;8365;51.030;4.696;2024-03-02T03:23:42;1.23;;;1.13;;
16504;SDS011;8365;51.030;4.696;2024-03-02T03:26:13;3.17;;;1.20;;
16504;SDS011;8365;51.030;4.696;2024-03-02T03:28:43;2.20;;;0.90;;
16504;SDS011;8365;51.030;4.696;2024-03-02T03:31:14;2.23;;;0.93;;
16504;SDS011;8365;51.030;4.696;2024-03-02T03:33:45;1.90;;;0.83;;
16504;SDS011;8365;51.030;4.696;2024-03-02T03:36:15;6.50;;;1.30;;
16504;SDS011;8365;51.030;4.696;2024-03-02T03:38:45;1.50;;;1.00;;
16504;SDS011;8365;51.030;4.696;2024-03-02T03:41:16;1.77;;;1.00;;
16504;SDS011;8365;51.030;4.696;2024-03-02T03:43:48;1.20;;;0.80;;
16504;SDS011;8365;51.030;4.696;2024-03-02T03:46:19;2.07;;;1.40;;
16504;SDS011;8365;51.030;4.696;2024-03-02T03:48:49;1.80;;;1.10;;
16504;SDS011;8365;51.030;4.696;2024-03-02T03:51:20;2.40;;;1.30;;
16504;SDS011;8365;51.030;4.696;2024-03-02T03:53:52;3.13;;;1.30;;
16504;SDS011;8365;51.030;4.696;2024-03-02T03:56:22;2.03;;;1.00;;
16504;SDS011;8365;51.030;4.696;2024-03-02T03:58:53;2.67;;;1.17;;
16504;SDS011;8365;51.030;4.696;2024-03-02T04:01:23;2.07;;;1.17;;
16504;SDS011;8365;51.030;4.696;2024-03-02T04:03:54;4.33;;;1.10;;
16504;SDS011;8365;51.030;4.696;2024-03-02T04:06:24;1.10;;;1.00;;
16504;SDS011;8365;51.030;4.696;2024-03-02T04:08:55;1.67;;;1.30;;
16504;SDS011;8365;51.030;4.696;2024-03-02T04:11:26;1.67;;;1.20;;
16504;SDS011;8365;51.030;4.696;2024-03-02T04:14:00;1.63;;;0.97;;
16504;SDS011;8365;51.030;4.696;2024-03-02T04:16:31;1.33;;;1.20;;
16504;SDS011;8365;51.030;4.696;2024-03-02T04:19:01;1.60;;;1.00;;
16504;SDS011;8365;51.030;4.696;2024-03-02T04:21:32;2.73;;;1.10;;
16504;SDS011;8365;51.030;4.696;2024-03-02T04:24:02;2.57;;;1.40;;
16504;SDS011;8365;51.030;4.696;2024-03-02T04:26:35;1.97;;;1.00;;
16504;SDS011;8365;51.030;4.696;2024-03-02T04:29:06;2.70;;;1.13;;
16504;SDS011;8365;51.030;4.696;2024-03-02T04:31:36;2.90;;;1.33;;
16504;SDS011;8365;51.030;4.696;2024-03-02T04:34:07;1.13;;;1.00;;
16504;SDS011;8365;51.030;4.696;2024-03-02T04:36:38;2.03;;;0.90;;
16504;SDS011;8365;51.030;4.696;2024-03-02T04:39:08;1.70;;;0.90;;
16504;SDS011;8365;51.030;4.696;2024-03-02T04:41:39;1.20;;;1.00;;
16504;SDS011;8365;51.030;4.696;2024-03-02T04:44:10;3.03;;;1.00;;
16504;SDS011;8365;51.030;4.696;2024-03-02T04:46:40;2.67;;;1.20;;
16504;SDS011;8365;51.030;4.696;2024-03-02T04:49:11;3.37;;;1.40;;
16504;SDS011;8365;51.030;4.696;2024-03-02T04:51:41;1.70;;;1.00;;
16504;SDS011;8365;51.030;4.696;2024-03-02T04:54:12;1.97;;;0.90;;
16504;SDS011;8365;51.030;4.696;2024-03-02T04:56:46;3.37;;;1.20;;
16504;SDS011;8365;51.030;4.696;2024-03-02T04:59:21;1.17;;;1.07;;
16504;SDS011;8365;51.030;4.696;2024-03-02T05:01:52;2.20;;;1.10;;
16504;SDS011;8365;51.030;4.696;2024-03-02T05:04:22;1.57;;;1.07;;
16504;SDS011;8365;51.030;4.696;2024-03-02T05:06:53;2.00;;;1.30;;
16504;SDS011;8365;51.030;4.696;2024-03-02T05:09:26;4.03;;;1.40;;
16504;SDS011;8365;51.030;4.696;2024-03-02T05:11:56;2.07;;;1.20;;
16504;SDS011;8365;51.030;4.696;2024-03-02T05:14:50;1.27;;;1.17;;
16504;SDS011;8365;51.030;4.696;2024-03-02T05:17:20;2.87;;;1.23;;
16504;SDS011;8365;51.030;4.696;2024-03-02T05:19:51;5.33;;;1.33;;
16504;SDS011;8365;51.030;4.696;2024-03-02T05:22:21;1.87;;;0.90;;
16504;SDS011;8365;51.030;4.696;2024-03-02T05:24:51;2.97;;;1.20;;
16504;SDS011;8365;51.030;4.696;2024-03-02T05:27:22;2.20;;;1.23;;
16504;SDS011;8365;51.030;4.696;2024-03-02T05:29:52;1.87;;;1.23;;
16504;SDS011;8365;51.030;4.696;2024-03-02T05:32:23;1.10;;;1.00;;
16504;SDS011;8365;51.030;4.696;2024-03-02T05:34:53;4.00;;;1.37;;
16504;SDS011;8365;51.030;4.696;2024-03-02T05:37:25;1.77;;;1.07;;
16504;SDS011;8365;51.030;4.696;2024-03-02T05:39:55;1.37;;;1.20;;
16504;SDS011;8365;51.030;4.696;2024-03-02T05:42:26;2.40;;;1.40;;
16504;SDS011;8365;51.030;4.696;2024-03-02T05:44:57;1.20;;;0.97;;
16504;SDS011;8365;51.030;4.696;2024-03-02T05:47:29;4.00;;;1.50;;
16504;SDS011;8365;51.030;4.696;2024-03-02T05:50:00;3.47;;;1.57;;
16504;SDS011;8365;51.030;4.696;2024-03-02T05:52:30;2.37;;;1.30;;
16504;SDS011;8365;51.030;4.696;2024-03-02T05:55:01;2.73;;;1.20;;
16504;SDS011;8365;51.030;4.696;2024-03-02T05:57:33;3.33;;;1.53;;
16504;SDS011;8365;51.030;4.696;2024-03-02T06:00:19;1.87;;;1.23;;
16504;SDS011;8365;51.030;4.696;2024-03-02T06:02:49;2.07;;;1.30;;
16504;SDS011;8365;51.030;4.696;2024-03-02T06:05:22;2.83;;;1.40;;
16504;SDS011;8365;51.030;4.696;2024-03-02T06:07:53;4.40;;;1.50;;
16504;SDS011;8365;51.030;4.696;2024-03-02T06:10:24;6.13;;;1.47;;
16504;SDS011;8365;51.030;4.696;2024-03-02T06:12:55;3.53;;;1.60;;
16504;SDS011;8365;51.030;4.696;2024-03-02T06:15:26;3.43;;;1.60;;
16504;SDS011;8365;51.030;4.696;2024-03-02T06:17:56;3.53;;;1.33;;
16504;SDS011;8365;51.030;4.696;2024-03-02T06:20:26;3.10;;;1.33;;
16504;SDS011;8365;51.030;4.696;2024-03-02T06:22:57;3.47;;;1.50;;
16504;SDS011;8365;51.030;4.696;2024-03-02T06:25:28;3.90;;;1.60;;
16504;SDS011;8365;51.030;4.696;2024-03-02T06:27:58;2.10;;;1.40;;
16504;SDS011;8365;51.030;4.696;2024-03-02T06:30:29;2.67;;;1.50;;
16504;SDS011;8365;51.030;4.696;2024-03-02T06:32:59;3.17;;;1.33;;
16504;SDS011;8365;51.030;4.696;2024-03-02T06:35:30;2.67;;;1.27;;
16504;SDS011;8365;51.030;4.696;2024-03-02T06:38:00;2.77;;;1.60;;
16504;SDS011;8365;51.030;4.696;2024-03-02T06:40:31;3.53;;;1.53;;
16504;SDS011;8365;51.030;4.696;2024-03-02T06:43:01;3.07;;;1.53;;
16504;SDS011;8365;51.030;4.696;2024-03-02T06:45:34;3.17;;;1.50;;
16504;SDS011;8365;51.030;4.696;2024-03-02T06:48:05;3.87;;;1.63;;
16504;SDS011;8365;51.030;4.696;2024-03-02T06:50:39;2.47;;;1.30;;
16504;SDS011;8365;51.030;4.696;2024-03-02T06:53:09;5.73;;;1.80;;
16504;SDS011;8365;51.030;4.696;2024-03-02T06:55:40;2.67;;;1.50;;
16504;SDS011;8365;51.030;4.696;2024-03-02T06:58:13;4.77;;;1.67;;
16504;SDS011;8365;51.030;4.696;2024-03-02T07:00:47;2.13;;;1.47;;
16504;SDS011;8365;51.030;4.696;2024-03-02T07:03:18;5.33;;;2.10;;
16504;SDS011;8365;51.030;4.696;2024-03-02T07:05:48;8.30;;;2.03;;
16504;SDS011;8365;51.030;4.696;2024-03-02T07:08:19;3.50;;;1.63;;
16504;SDS011;8365;51.030;4.696;2024-03-02T07:10:49;4.17;;;1.63;;
16504;SDS011;8365;51.030;4.696;2024-03-02T07:13:20;3.63;;;1.73;;
16504;SDS011;8365;51.030;4.696;2024-03-02T07:15:50;2.87;;;1.70;;
16504;SDS011;8365;51.030;4.696;2024-03-02T07:18:33;5.10;;;1.97;;
16504;SDS011;8365;51.030;4.696;2024-03-02T07:21:03;4.23;;;1.67;;
16504;SDS011;8365;51.030;4.696;2024-03-02T07:23:34;4.77;;;1.97;;
16504;SDS011;8365;51.030;4.696;2024-03-02T07:26:04;2.47;;;1.83;;
16504;SDS011;8365;51.030;4.696;2024-03-02T07:28:36;4.53;;;1.53;;
16504;SDS011;8365;51.030;4.696;2024-03-02T07:31:06;5.27;;;1.60;;
16504;SDS011;8365;51.030;4.696;2024-03-02T07:33:37;3.63;;;1.40;;
16504;SDS011;8365;51.030;4.696;2024-03-02T07:36:07;4.17;;;1.70;;
16504;SDS011;8365;51.030;4.696;2024-03-02T07:38:38;3.77;;;1.63;;
16504;SDS011;8365;51.030;4.696;2024-03-02T07:41:10;2.30;;;1.60;;
16504;SDS011;8365;51.030;4.696;2024-03-02T07:43:41;2.83;;;1.63;;
16504;SDS011;8365;51.030;4.696;2024-03-02T07:46:11;3.33;;;1.70;;
16504;SDS011;8365;51.030;4.696;2024-03-02T07:48:45;5.50;;;1.90;;
16504;SDS011;8365;51.030;4.696;2024-03-02T07:51:15;3.67;;;1.60;;
16504;SDS011;8365;51.030;4.696;2024-03-02T07:53:46;6.47;;;1.97;;
16504;SDS011;8365;51.030;4.696;2024-03-02T07:56:17;3.00;;;1.60;;
16504;SDS011;8365;51.030;4.696;2024-03-02T07:58:52;1.67;;;1.23;;
16504;SDS011;8365;51.030;4.696;2024-03-02T08:01:27;2.77;;;1.57;;
16504;SDS011;8365;51.030;4.696;2024-03-02T08:04:00;3.97;;;2.17;;
16504;SDS011;8365;51.030;4.696;2024-03-02T08:06:33;5.13;;;1.87;;
16504;SDS011;8365;51.030;4.696;2024-03-02T08:09:04;2.90;;;1.30;;
16504;SDS011;8365;51.030;4.696;2024-03-02T08:11:39;2.80;;;1.70;;
16504;SDS011;8365;51.030;4.696;2024-03-02T08:14:09;4.33;;;1.60;;
16504;SDS011;8365;51.030;4.696;2024-03-02T08:16:40;4.83;;;1.60;;
16504;SDS011;8365;51.030;4.696;2024-03-02T08:19:11;3.30;;;1.47;;
16504;SDS011;8365;51.030;4.696;2024-03-02T08:21:42;2.97;;;1.83;;
16504;SDS011;8365;51.030;4.696;2024-03-02T08:24:13;4.73;;;2.40;;
16504;SDS011;8365;51.030;4.696;2024-03-02T08:26:44;4.23;;;1.73;;
16504;SDS011;8365;51.030;4.696;2024-03-02T08:29:16;2.60;;;1.50;;
16504;SDS011;8365;51.030;4.696;2024-03-02T08:31:47;3.13;;;1.60;;
16504;SDS011;8365;51.030;4.696;2024-03-02T08:34:17;3.53;;;1.60;;
16504;SDS011;8365;51.030;4.696;2024-03-02T08:36:47;4.73;;;1.80;;
16504;SDS011;8365;51.030;4.696;2024-03-02T08:39:18;1.83;;;1.50;;
16504;SDS011;8365;51.030;4.696;2024-03-02T08:41:49;6.27;;;2.00;;
16504;SDS011;8365;51.030;4.696;2024-03-02T08:44:20;4.30;;;1.87;;
16504;SDS011;8365;51.030;4.696;2024-03-02T08:46:51;8.27;;;1.73;;
16504;SDS011;8365;51.030;4.696;2024-03-02T08:49:22;2.60;;;1.60;;
16504;SDS011;8365;51.030;4.696;2024-03-02T08:51:52;2.70;;;1.70;;
16504;SDS011;8365;51.030;4.696;2024-03-02T08:54:25;5.30;;;2.03;;
16504;SDS011;8365;51.030;4.696;2024-03-02T08:56:58;4.70;;;1.70;;
16504;SDS011;8365;51.030;4.696;2024-03-02T08:59:32;2.87;;;1.47;;
16504;SDS011;8365;51.030;4.696;2024-03-02T09:02:02;4.30;;;1.70;;
16504;SDS011;8365;51.030;4.696;2024-03-02T09:04:33;5.63;;;2.10;;
16504;SDS011;8365;51.030;4.696;2024-03-02T09:07:04;5.90;;;1.87;;
16504;SDS011;8365;51.030;4.696;2024-03-02T09:09:34;6.30;;;2.17;;
16504;SDS011;8365;51.030;4.696;2024-03-02T09:12:08;2.93;;;1.80;;
16504;SDS011;8365;51.030;4.696;2024-03-02T09:14:39;2.80;;;1.57;;
16504;SDS011;8365;51.030;4.696;2024-03-02T09:17:11;3.60;;;1.40;;
16504;SDS011;8365;51.030;4.696;2024-03-02T09:19:41;2.63;;;1.60;;
16504;SDS011;8365;51.030;4.696;2024-03-02T09:22:12;6.23;;;2.10;;
16504;SDS011;8365;51.030;4.696;2024-03-02T09:24:43;3.30;;;1.70;;
16504;SDS011;8365;51.030;4.696;2024-03-02T09:27:13;5.17;;;1.90;;
16504;SDS011;8365;51.030;4.696;2024-03-02T09:29:44;2.93;;;1.50;;
16504;SDS011;8365;51.030;4.696;2024-03-02T09:32:15;6.13;;;2.20;;
16504;SDS011;8365;51.030;4.696;2024-03-02T09:34:45;4.93;;;1.80;;
16504;SDS011;8365;51.030;4.696;2024-03-02T09:37:20;3.13;;;1.47;;
16504;SDS011;8365;51.030;4.696;2024-03-02T09:39:51;5.67;;;1.90;;
16504;SDS011;8365;51.030;4.696;2024-03-02T09:42:22;2.67;;;1.60;;
16504;SDS011;8365;51.030;4.696;2024-03-02T09:44:55;4.67;;;1.60;;
16504;SDS011;8365;51.030;4.696;2024-03-02T09:47:27;3.00;;;1.53;;
16504;SDS011;8365;51.030;4.696;2024-03-02T09:49:57;4.53;;;1.60;;
16504;SDS011;8365;51.030;4.696;2024-03-02T09:52:28;5.33;;;1.70;;
16504;SDS011;8365;51.030;4.696;2024-03-02T09:54:59;4.83;;;1.70;;
16504;SDS011;8365;51.030;4.696;2024-03-02T09:57:29;4.80;;;1.60;;
16504;SDS011;8365;51.030;4.696;2024-03-02T10:00:00;3.93;;;1.80;;
16504;SDS011;8365;51.030;4.696;2024-03-02T10:02:31;4.07;;;1.90;;
16504;SDS011;8365;51.030;4.696;2024-03-02T10:05:02;4.27;;;1.80;;
16504;SDS011;8365;51.030;4.696;2024-03-02T10:07:34;4.13;;;1.50;;
16504;SDS011;8365;51.030;4.696;2024-03-02T10:10:13;5.93;;;1.90;;
16504;SDS011;8365;51.030;4.696;2024-03-02T10:12:45;4.43;;;1.50;;
16504;SDS011;8365;51.030;4.696;2024-03-02T10:15:23;4.23;;;1.80;;
16504;SDS011;8365;51.030;4.696;2024-03-02T10:17:56;4.47;;;1.70;;
16504;SDS011;8365;51.030;4.696;2024-03-02T10:20:27;6.63;;;1.80;;
16504;SDS011;8365;51.030;4.696;2024-03-02T10:23:09;2.93;;;1.67;;
16504;SDS011;8365;51.030;4.696;2024-03-02T10:25:44;3.37;;;1.90;;
16504;SDS011;8365;51.030;4.696;2024-03-02T10:28:15;5.23;;;1.70;;
16504;SDS011;8365;51.030;4.696;2024-03-02T10:30:47;3.03;;;1.80;;
16504;SDS011;8365;51.030;4.696;2024-03-02T10:33:18;6.90;;;2.00;;
16504;SDS011;8365;51.030;4.696;2024-03-02T10:35:49;7.33;;;1.60;;
16504;SDS011;8365;51.030;4.696;2024-03-02T10:38:20;4.10;;;1.73;;
16504;SDS011;8365;51.030;4.696;2024-03-02T10:40:51;3.93;;;1.67;;
16504;SDS011;8365;51.030;4.696;2024-03-02T10:43:22;7.30;;;2.00;;
16504;SDS011;8365;51.030;4.696;2024-03-02T10:45:53;3.97;;;1.80;;
16504;SDS011;8365;51.030;4.696;2024-03-02T10:48:25;3.27;;;1.60;;
16504;SDS011;8365;51.030;4.696;2024-03-02T10:50:58;4.57;;;1.87;;
16504;SDS011;8365;51.030;4.696;2024-03-02T10:53:31;3.90;;;1.53;;
16504;SDS011;8365;51.030;4.696;2024-03-02T10:56:02;5.00;;;2.10;;
16504;SDS011;8365;51.030;4.696;2024-03-02T10:58:37;4.77;;;1.63;;
16504;SDS011;8365;51.030;4.696;2024-03-02T11:01:08;7.60;;;1.97;;
16504;SDS011;8365;51.030;4.696;2024-03-02T11:03:41;6.37;;;2.00;;
16504;SDS011;8365;51.030;4.696;2024-03-02T11:06:12;5.37;;;1.70;;
16504;SDS011;8365;51.030;4.696;2024-03-02T11:08:43;3.57;;;1.43;;
16504;SDS011;8365;51.030;4.696;2024-03-02T11:11:19;3.57;;;1.60;;
16504;SDS011;8365;51.030;4.696;2024-03-02T11:13:56;3.30;;;1.50;;
16504;SDS011;8365;51.030;4.696;2024-03-02T11:16:33;4.23;;;1.47;;
16504;SDS011;8365;51.030;4.696;2024-03-02T11:19:06;3.40;;;1.50;;
16504;SDS011;8365;51.030;4.696;2024-03-02T11:21:41;4.67;;;1.40;;
16504;SDS011;8365;51.030;4.696;2024-03-02T11:26:57;3.50;;;1.50;;
16504;SDS011;8365;51.030;4.696;2024-03-02T11:34:45;3.77;;;1.43;;
16504;SDS011;8365;51.030;4.696;2024-03-02T11:37:17;4.50;;;1.93;;
16504;SDS011;8365;51.030;4.696;2024-03-02T11:39:50;3.47;;;1.53;;
16504;SDS011;8365;51.030;4.696;2024-03-02T11:42:21;2.53;;;1.50;;
16504;SDS011;8365;51.030;4.696;2024-03-02T11:44:51;2.73;;;1.40;;
16504;SDS011;8365;51.030;4.696;2024-03-02T11:47:31;2.47;;;1.60;;
16504;SDS011;8365;51.030;4.696;2024-03-02T11:50:04;2.70;;;1.53;;
16504;SDS011;8365;51.030;4.696;2024-03-02T11:52:38;4.37;;;1.80;;
16504;SDS011;8365;51.030;4.696;2024-03-02T11:55:10;3.37;;;1.53;;
16504;SDS011;8365;51.030;4.696;2024-03-02T11:57:42;4.27;;;1.73;;
16504;SDS011;8365;51.030;4.696;2024-03-02T12:00:16;3.57;;;1.60;;
16504;SDS011;8365;51.030;4.696;2024-03-02T12:02:59;5.03;;;1.77;;
16504;SDS011;8365;51.030;4.696;2024-03-02T12:05:31;4.70;;;1.43;;
16504;SDS011;8365;51.030;4.696;2024-03-02T12:08:03;4.70;;;1.73;;
16504;SDS011;8365;51.030;4.696;2024-03-02T12:10:35;4.13;;;1.60;;
16504;SDS011;8365;51.030;4.696;2024-03-02T12:13:07;3.93;;;1.60;;
16504;SDS011;8365;51.030;4.696;2024-03-02T12:15:40;3.87;;;1.80;;
16504;SDS011;8365;51.030;4.696;2024-03-02T12:18:10;4.43;;;1.70;;
16504;SDS011;8365;51.030;4.696;2024-03-02T12:20:41;3.87;;;1.57;;
16504;SDS011;8365;51.030;4.696;2024-03-02T12:23:11;3.00;;;1.60;;
16504;SDS011;8365;51.030;4.696;2024-03-02T12:25:42;4.23;;;1.60;;
16504;SDS011;8365;51.030;4.696;2024-03-02T12:28:13;2.73;;;1.50;;
16504;SDS011;8365;51.030;4.696;2024-03-02T12:30:44;3.60;;;1.40;;
16504;SDS011;8365;51.030;4.696;2024-03-02T12:33:15;2.33;;;1.37;;
16504;SDS011;8365;51.030;4.696;2024-03-02T12:35:48;3.80;;;1.57;;
16504;SDS011;8365;51.030;4.696;2024-03-02T12:38:21;4.53;;;1.77;;
16504;SDS011;8365;51.030;4.696;2024-03-02T12:40:55;3.67;;;1.60;;
16504;SDS011;8365;51.030;4.696;2024-03-02T12:43:29;3.50;;;1.60;;
16504;SDS011;8365;51.030;4.696;2024-03-02T12:46:01;4.20;;;1.60;;
16504;SDS011;8365;51.030;4.696;2024-03-02T12:48:33;2.47;;;1.33;;
16504;SDS011;8365;51.030;4.696;2024-03-02T12:51:05;3.80;;;1.60;;
16504;SDS011;8365;51.030;4.696;2024-03-02T12:53:35;2.73;;;1.43;;
16504;SDS011;8365;51.030;4.696;2024-03-02T12:56:07;6.17;;;1.90;;
16504;SDS011;8365;51.030;4.696;2024-03-02T12:58:41;4.50;;;1.60;;
16504;SDS011;8365;51.030;4.696;2024-03-02T13:01:14;2.50;;;1.60;;
16504;SDS011;8365;51.030;4.696;2024-03-02T13:03:49;4.77;;;1.70;;
16504;SDS011;8365;51.030;4.696;2024-03-02T13:06:23;2.53;;;1.57;;
16504;SDS011;8365;51.030;4.696;2024-03-02T13:08:54;3.57;;;1.40;;
16504;SDS011;8365;51.030;4.696;2024-03-02T13:11:25;6.03;;;2.00;;
16504;SDS011;8365;51.030;4.696;2024-03-02T13:13:55;5.00;;;1.90;;
16504;SDS011;8365;51.030;4.696;2024-03-02T13:16:26;4.00;;;1.63;;
16504;SDS011;8365;51.030;4.696;2024-03-02T13:18:57;2.23;;;1.40;;
16504;SDS011;8365;51.030;4.696;2024-03-02T13:21:28;2.93;;;1.60;;
16504;SDS011;8365;51.030;4.696;2024-03-02T13:23:58;4.70;;;1.63;;
16504;SDS011;8365;51.030;4.696;2024-03-02T13:26:30;3.10;;;1.70;;
16504;SDS011;8365;51.030;4.696;2024-03-02T13:29:01;6.67;;;1.57;;
16504;SDS011;8365;51.030;4.696;2024-03-02T13:31:31;3.53;;;1.60;;
16504;SDS011;8365;51.030;4.696;2024-03-02T13:34:02;4.47;;;1.50;;
16504;SDS011;8365;51.030;4.696;2024-03-02T13:36:32;3.53;;;1.60;;
16504;SDS011;8365;51.030;4.696;2024-03-02T13:39:03;3.50;;;1.67;;
16504;SDS011;8365;51.030;4.696;2024-03-02T13:41:35;5.17;;;1.80;;
16504;SDS011;8365;51.030;4.696;2024-03-02T13:44:06;3.00;;;1.40;;
16504;SDS011;8365;51.030;4.696;2024-03-02T13:46:37;4.60;;;1.60;;
16504;SDS011;8365;51.030;4.696;2024-03-02T13:49:07;5.63;;;1.97;;
16504;SDS011;8365;51.030;4.696;2024-03-02T13:51:37;4.20;;;1.67;;
16504;SDS011;8365;51.030;4.696;2024-03-02T13:54:08;3.97;;;1.93;;
16504;SDS011;8365;51.030;4.696;2024-03-02T13:56:38;3.57;;;1.80;;
16504;SDS011;8365;51.030;4.696;2024-03-02T13:59:10;3.03;;;1.57;;
16504;SDS011;8365;51.030;4.696;2024-03-02T14:01:40;3.87;;;1.60;;
16504;SDS011;8365;51.030;4.696;2024-03-02T14:04:10;3.23;;;1.40;;
16504;SDS011;8365;51.030;4.696;2024-03-02T14:06:42;3.80;;;1.60;;
16504;SDS011;8365;51.030;4.696;2024-03-02T14:09:13;2.47;;;1.20;;
16504;SDS011;8365;51.030;4.696;2024-03-02T14:11:44;3.40;;;1.13;;
16504;SDS011;8365;51.030;4.696;2024-03-02T14:14:14;1.47;;;1.03;;
16504;SDS011;8365;51.030;4.696;2024-03-02T14:16:45;2.50;;;1.20;;
16504;SDS011;8365;51.030;4.696;2024-03-02T14:19:15;3.03;;;1.40;;
16504;SDS011;8365;51.030;4.696;2024-03-02T14:21:46;4.70;;;1.20;;
16504;SDS011;8365;51.030;4.696;2024-03-02T14:24:19;2.87;;;1.60;;
16504;SDS011;8365;51.030;4.696;2024-03-02T14:26:54;3.70;;;1.43;;
16504;SDS011;8365;51.030;4.696;2024-03-02T14:29:24;2.80;;;1.40;;
16504;SDS011;8365;51.030;4.696;2024-03-02T14:31:55;3.13;;;1.63;;
16504;SDS011;8365;51.030;4.696;2024-03-02T14:34:25;2.40;;;1.20;;
16504;SDS011;8365;51.030;4.696;2024-03-02T14:36:56;2.70;;;1.40;;
16504;SDS011;8365;51.030;4.696;2024-03-02T14:39:26;1.83;;;1.50;;
16504;SDS011;8365;51.030;4.696;2024-03-02T14:41:57;2.53;;;1.60;;
16504;SDS011;8365;51.030;4.696;2024-03-02T14:44:27;2.53;;;1.53;;
16504;SDS011;8365;51.030;4.696;2024-03-02T14:46:58;2.67;;;1.50;;
16504;SDS011;8365;51.030;4.696;2024-03-02T14:49:28;3.03;;;1.27;;
16504;SDS011;8365;51.030;4.696;2024-03-02T14:52:03;3.70;;;1.30;;
16504;SDS011;8365;51.030;4.696;2024-03-02T14:54:34;3.03;;;1.60;;
16504;SDS011;8365;51.030;4.696;2024-03-02T14:57:05;2.33;;;1.90;;
16504;SDS011;8365;51.030;4.696;2024-03-02T14:59:36;3.17;;;1.40;;
16504;SDS011;8365;51.030;4.696;2024-03-02T15:02:07;3.47;;;1.50;;
16504;SDS011;8365;51.030;4.696;2024-03-02T15:04:38;1.70;;;1.30;;
16504;SDS011;8365;51.030;4.696;2024-03-02T15:07:11;2.50;;;1.47;;
16504;SDS011;8365;51.030;4.696;2024-03-02T15:09:42;3.33;;;1.70;;
16504;SDS011;8365;51.030;4.696;2024-03-02T15:12:12;1.63;;;1.30;;
16504;SDS011;8365;51.030;4.696;2024-03-02T15:14:44;2.73;;;1.30;;
16504;SDS011;8365;51.030;4.696;2024-03-02T15:17:17;1.20;;;1.10;;
16504;SDS011;8365;51.030;4.696;2024-03-02T15:19:48;3.67;;;1.43;;
16504;SDS011;8365;51.030;4.696;2024-03-02T15:22:18;1.77;;;1.30;;
16504;SDS011;8365;51.030;4.696;2024-03-02T15:24:49;2.83;;;1.60;;
16504;SDS011;8365;51.030;4.696;2024-03-02T15:27:23;1.53;;;1.23;;
16504;SDS011;8365;51.030;4.696;2024-03-02T15:29:55;2.73;;;1.30;;
16504;SDS011;8365;51.030;4.696;2024-03-02T15:32:27;1.30;;;1.20;;
16504;SDS011;8365;51.030;4.696;2024-03-02T15:35:00;2.77;;;1.17;;